createdAt,value
2022-10-19T00:01:21.254Z,12.15
2022-10-19T00:03:52.208Z,11.35
2022-10-19T00:06:26.664Z,11.68
2022-10-19T00:08:56.733Z,10.80
2022-10-19T00:11:24.954Z,11.18
2022-10-19T00:13:53.382Z,11.88
2022-10-19T00:16:21.658Z,11.55
2022-10-19T00:18:49.191Z,11.57
2022-10-19T00:21:18.930Z,11.50
2022-10-19T00:23:46.717Z,11.23
2022-10-19T00:26:14.396Z,11.13
2022-10-19T00:28:42.894Z,11.88
2022-10-19T00:31:16.104Z,11.40
2022-10-19T00:33:46.890Z,12.07
2022-10-19T00:36:20.439Z,11.63
2022-10-19T00:38:48.534Z,12.35
2022-10-19T00:41:17.676Z,12.63
2022-10-19T00:44:01.492Z,12.52
2022-10-19T00:46:32.604Z,12.65
2022-10-19T00:49:14.123Z,11.35
2022-10-19T00:51:46.215Z,12.20
2022-10-19T00:54:14.316Z,12.57
2022-10-19T00:56:44.233Z,11.38
2022-10-19T00:59:14.970Z,11.68
2022-10-19T01:01:44.230Z,11.32
2022-10-19T01:04:12.695Z,11.02
2022-10-19T01:06:41.677Z,10.98
2022-10-19T01:09:09.652Z,10.98
2022-10-19T01:11:51.533Z,11.25
2022-10-19T01:14:40.379Z,12.02
2022-10-19T01:17:07.815Z,10.57
2022-10-19T01:20:13.120Z,11.20
2022-10-19T01:23:19.301Z,11.03
2022-10-19T01:26:19.434Z,11.30
2022-10-19T01:29:19.150Z,10.63
2022-10-19T01:31:46.593Z,10.80
2022-10-19T01:34:38.767Z,11.07
2022-10-19T01:37:27.124Z,11.60
2022-10-19T01:40:06.930Z,11.85
2022-10-19T01:45:28.818Z,11.40
2022-10-19T01:48:03.786Z,11.30
2022-10-19T01:50:50.682Z,11.48
2022-10-19T01:53:19.885Z,12.43
2022-10-19T01:55:51.299Z,11.43
2022-10-19T01:58:24.951Z,13.18
2022-10-19T02:00:54.409Z,12.80
2022-10-19T02:03:24.341Z,13.18
2022-10-19T02:05:53.497Z,12.60
2022-10-19T02:08:30.890Z,12.90
2022-10-19T02:10:59.898Z,13.07
2022-10-19T02:13:28.712Z,12.13
2022-10-19T02:15:59.742Z,13.38
2022-10-19T02:18:32.937Z,13.10
2022-10-19T02:21:05.535Z,12.75
2022-10-19T02:23:33.252Z,14.38
2022-10-19T02:26:00.883Z,15.52
2022-10-19T02:28:30.034Z,14.07
2022-10-19T02:30:58.799Z,13.30
2022-10-19T02:33:27.524Z,14.43
2022-10-19T02:35:56.265Z,13.57
2022-10-19T02:38:24.942Z,15.23
2022-10-19T02:40:56.832Z,15.05
2022-10-19T02:43:26.714Z,17.30
2022-10-19T02:46:04.065Z,14.35
2022-10-19T02:48:34.493Z,14.95
2022-10-19T02:51:02.751Z,15.48
2022-10-19T02:53:30.341Z,16.55
2022-10-19T02:55:57.887Z,21.25
2022-10-19T02:58:25.459Z,18.77
2022-10-19T03:00:52.974Z,16.38
2022-10-19T03:03:20.525Z,21.98
2022-10-19T03:05:48.092Z,15.75
2022-10-19T03:08:15.834Z,14.50
2022-10-19T03:10:43.363Z,18.67
2022-10-19T03:13:10.842Z,16.23
2022-10-19T03:15:38.418Z,16.50
2022-10-19T03:18:06.041Z,19.85
2022-10-19T03:20:33.591Z,17.65
2022-10-19T03:23:01.315Z,15.20
2022-10-19T03:25:28.772Z,13.65
2022-10-19T03:27:56.313Z,15.20
2022-10-19T03:30:23.874Z,16.25
2022-10-19T03:32:51.369Z,16.27
2022-10-19T03:35:19.304Z,17.02
2022-10-19T03:37:46.903Z,16.98
2022-10-19T03:40:15.490Z,16.98
2022-10-19T03:42:42.929Z,18.33
2022-10-19T03:45:10.685Z,16.95
2022-10-19T03:47:38.137Z,17.27
2022-10-19T03:50:14.055Z,16.27
2022-10-19T03:52:41.734Z,15.77
2022-10-19T03:55:10.425Z,14.50
2022-10-19T03:57:38.186Z,14.52
2022-10-19T04:00:06.178Z,13.13
2022-10-19T04:02:39.479Z,13.95
2022-10-19T04:05:07.653Z,13.57
2022-10-19T04:07:35.294Z,14.95
2022-10-19T04:10:04.506Z,15.52
2022-10-19T04:12:34.200Z,14.77
2022-10-19T04:15:01.821Z,14.85
2022-10-19T04:17:30.074Z,16.20
2022-10-19T04:20:01.088Z,15.52
2022-10-19T04:22:28.951Z,15.90
2022-10-19T04:24:56.421Z,16.23
2022-10-19T04:27:23.955Z,14.93
2022-10-19T04:29:52.222Z,14.55
2022-10-19T04:32:19.722Z,16.58
2022-10-19T04:34:47.123Z,15.38
2022-10-19T04:37:14.584Z,16.50
2022-10-19T04:39:45.284Z,16.58
2022-10-19T04:42:12.808Z,16.35
2022-10-19T04:44:40.413Z,17.40
2022-10-19T04:47:07.851Z,18.10
2022-10-19T04:49:35.615Z,17.77
2022-10-19T04:52:03.425Z,20.48
2022-10-19T04:54:31.085Z,19.77
2022-10-19T04:56:58.651Z,18.70
2022-10-19T04:59:26.277Z,17.75
2022-10-19T05:01:53.834Z,19.25
2022-10-19T05:04:21.675Z,20.02
2022-10-19T05:06:49.128Z,19.70
2022-10-19T05:09:17.277Z,22.85
2022-10-19T05:11:44.830Z,23.52
2022-10-19T05:14:12.304Z,23.80
2022-10-19T05:16:39.878Z,22.40
2022-10-19T05:19:07.683Z,20.15
2022-10-19T05:21:35.340Z,20.40
2022-10-19T05:24:02.985Z,21.02
2022-10-19T05:26:30.771Z,24.52
2022-10-19T05:29:04.815Z,29.48
2022-10-19T05:31:33.943Z,26.90
2022-10-19T05:34:03.144Z,26.33
2022-10-19T05:36:36.829Z,26.85
2022-10-19T05:39:13.158Z,24.87
2022-10-19T05:41:46.032Z,25.25
2022-10-19T05:44:19.163Z,23.38
2022-10-19T05:46:47.673Z,18.52
2022-10-19T05:49:18.480Z,13.70
2022-10-19T05:51:46.130Z,12.00
2022-10-19T05:54:14.473Z,10.25
2022-10-19T05:56:43.376Z,9.35
2022-10-19T05:59:15.969Z,9.20
2022-10-19T06:01:43.988Z,8.10
2022-10-19T06:04:14.088Z,7.38
2022-10-19T06:06:42.952Z,8.23
2022-10-19T06:09:12.331Z,7.13
2022-10-19T06:11:41.435Z,6.30
2022-10-19T06:14:13.417Z,7.00
2022-10-19T06:16:41.279Z,6.18
2022-10-19T06:19:08.882Z,6.78
2022-10-19T06:21:37.268Z,5.97
2022-10-19T06:24:06.657Z,6.50
2022-10-19T06:26:35.409Z,7.03
2022-10-19T06:29:04.957Z,6.53
2022-10-19T06:31:35.592Z,6.78
2022-10-19T06:34:03.842Z,6.75
2022-10-19T06:36:32.363Z,5.80
2022-10-19T06:39:01.783Z,6.82
2022-10-19T06:41:31.358Z,6.95
2022-10-19T06:44:12.758Z,6.38
2022-10-19T06:46:40.225Z,6.60
2022-10-19T06:49:07.752Z,6.43
2022-10-19T06:51:35.288Z,6.10
2022-10-19T06:54:03.025Z,5.70
2022-10-19T06:56:30.594Z,6.05
2022-10-19T06:58:58.850Z,5.78
2022-10-19T07:01:26.850Z,5.75
2022-10-19T07:03:55.343Z,5.45
2022-10-19T07:06:24.015Z,4.88
2022-10-19T07:08:52.586Z,5.50
2022-10-19T07:11:22.457Z,5.30
2022-10-19T07:13:52.423Z,4.65
2022-10-19T07:16:21.307Z,4.35
2022-10-19T07:18:51.905Z,4.90
2022-10-19T07:21:21.616Z,4.55
2022-10-19T07:23:49.492Z,3.58
2022-10-19T07:26:23.746Z,4.18
2022-10-19T07:28:51.580Z,4.03
2022-10-19T07:31:21.012Z,3.80
2022-10-19T07:33:59.609Z,4.28
2022-10-19T07:36:30.316Z,4.40
2022-10-19T07:38:58.316Z,4.10
2022-10-19T07:41:27.004Z,3.95
2022-10-19T07:43:54.985Z,4.18
2022-10-19T07:46:25.538Z,3.70
2022-10-19T07:48:53.639Z,4.00
2022-10-19T07:51:22.744Z,4.13
2022-10-19T07:53:50.330Z,4.20
2022-10-19T07:56:25.395Z,3.30
2022-10-19T07:58:55.739Z,3.50
2022-10-19T08:01:26.599Z,3.97
2022-10-19T08:06:43.279Z,3.90
2022-10-19T08:09:15.649Z,4.15
2022-10-19T08:11:50.573Z,4.10
2022-10-19T08:14:18.090Z,3.60
2022-10-19T08:16:45.567Z,4.13
2022-10-19T08:19:15.789Z,4.25
2022-10-19T08:21:46.190Z,3.83
2022-10-19T08:24:15.867Z,3.70
2022-10-19T08:26:43.756Z,3.80
2022-10-19T08:29:13.124Z,3.90
2022-10-19T08:31:42.283Z,3.78
2022-10-19T08:34:13.319Z,3.90
2022-10-19T08:36:44.050Z,3.78
2022-10-19T08:39:13.182Z,3.83
2022-10-19T08:41:40.631Z,3.20
2022-10-19T08:44:42.127Z,3.45
2022-10-19T08:47:31.361Z,3.70
2022-10-19T08:50:00.231Z,3.83
2022-10-19T08:52:34.735Z,3.83
2022-10-19T08:55:09.111Z,3.40
2022-10-19T08:58:00.954Z,3.50
2022-10-19T09:00:54.345Z,3.40
2022-10-19T09:03:37.713Z,3.55
2022-10-19T09:06:41.878Z,2.80
2022-10-19T09:09:13.351Z,3.15
2022-10-19T09:11:46.211Z,3.25
2022-10-19T09:14:22.781Z,2.70
2022-10-19T09:16:50.708Z,3.08
2022-10-19T09:19:25.766Z,2.83
2022-10-19T09:21:58.069Z,3.03
2022-10-19T09:24:50.583Z,2.97
2022-10-19T09:27:23.367Z,3.30
2022-10-19T09:30:00.784Z,2.92
2022-10-19T09:32:38.705Z,2.67
2022-10-19T09:35:30.523Z,2.90
2022-10-19T09:37:58.331Z,2.90
2022-10-19T09:40:29.120Z,2.80
2022-10-19T09:42:58.361Z,3.20
2022-10-19T09:45:41.122Z,3.15
2022-10-19T09:48:39.620Z,2.90
2022-10-19T09:51:18.105Z,2.55
2022-10-19T09:54:01.808Z,2.25
2022-10-19T09:56:40.751Z,2.47
2022-10-19T09:59:23.473Z,2.30
2022-10-19T10:02:13.771Z,2.42
2022-10-19T10:04:41.184Z,2.30
2022-10-19T10:07:16.305Z,1.95
2022-10-19T10:09:44.997Z,2.30
2022-10-19T10:12:15.373Z,2.35
2022-10-19T10:14:44.408Z,2.47
2022-10-19T10:17:20.479Z,2.60
2022-10-19T10:19:51.393Z,2.30
2022-10-19T10:22:57.299Z,2.28
2022-10-19T10:25:33.922Z,2.10
2022-10-19T10:28:16.928Z,2.38
2022-10-19T10:33:27.369Z,2.30
2022-10-19T10:36:11.350Z,2.53
2022-10-19T10:38:47.158Z,1.90
2022-10-19T10:41:17.775Z,2.30
2022-10-19T10:43:58.583Z,2.03
2022-10-19T10:46:34.482Z,2.10
2022-10-19T10:49:08.273Z,1.95
2022-10-19T10:51:49.216Z,1.70
2022-10-19T10:54:38.238Z,1.80
2022-10-19T10:57:15.889Z,1.73
2022-10-19T10:59:54.231Z,1.50
2022-10-19T11:03:13.493Z,1.65
2022-10-19T11:05:46.682Z,1.70
2022-10-19T11:08:25.307Z,1.55
2022-10-19T11:11:01.856Z,1.85
2022-10-19T11:13:50.274Z,1.73
2022-10-19T11:16:23.928Z,1.85
2022-10-19T11:18:57.018Z,2.10
2022-10-19T11:21:31.127Z,2.20
2022-10-19T11:24:13.519Z,1.85
2022-10-19T11:26:55.922Z,2.00
2022-10-19T11:29:46.333Z,2.10
2022-10-19T11:32:46.026Z,2.00
2022-10-19T11:35:19.464Z,2.10
2022-10-19T11:40:54.190Z,1.80
2022-10-19T11:43:39.568Z,1.80
2022-10-19T11:46:15.872Z,1.75
2022-10-19T11:49:07.542Z,1.92
2022-10-19T11:51:49.739Z,1.70
2022-10-19T11:54:32.258Z,1.65
2022-10-19T11:57:11.685Z,1.83
2022-10-19T12:00:37.773Z,1.85
2022-10-19T12:03:24.561Z,1.70
2022-10-19T12:06:22.872Z,1.70
2022-10-19T12:09:08.615Z,1.90
2022-10-19T12:12:02.001Z,1.70
2022-10-19T12:14:38.810Z,1.90
2022-10-19T12:19:54.676Z,1.90
2022-10-19T12:22:28.377Z,1.80
2022-10-19T12:24:59.187Z,1.92
2022-10-19T12:27:38.750Z,1.90
2022-10-19T12:30:17.303Z,2.03
2022-10-19T12:32:55.241Z,1.98
2022-10-19T12:35:28.713Z,1.90
2022-10-19T12:38:30.448Z,2.10
2022-10-19T12:41:14.276Z,2.25
2022-10-19T12:43:55.810Z,2.00
2022-10-19T12:46:37.514Z,1.95
2022-10-19T12:49:26.577Z,1.95
2022-10-19T12:51:55.986Z,1.90
2022-10-19T12:54:30.464Z,1.92
2022-10-19T12:57:00.394Z,1.90
2022-10-19T12:59:37.140Z,1.83
2022-10-19T13:02:29.106Z,1.90
2022-10-19T13:04:56.839Z,1.95
2022-10-19T13:07:26.493Z,2.05
2022-10-19T13:10:02.554Z,2.17
2022-10-19T13:12:43.670Z,2.10
2022-10-19T13:15:35.780Z,2.40
2022-10-19T13:18:16.868Z,2.38
2022-10-19T13:20:53.260Z,2.00
2022-10-19T13:23:26.876Z,2.17
2022-10-19T13:28:55.596Z,2.55
2022-10-19T13:31:29.072Z,2.20
2022-10-19T13:33:57.759Z,2.20
2022-10-19T13:36:26.016Z,2.88
2022-10-19T13:38:59.259Z,3.10
2022-10-19T13:41:44.587Z,2.90
2022-10-19T13:44:26.308Z,2.60
2022-10-19T13:46:59.527Z,2.67
2022-10-19T13:49:57.305Z,3.30
2022-10-19T13:53:19.203Z,3.38
2022-10-19T13:56:23.923Z,3.25
2022-10-19T13:59:27.888Z,3.42
2022-10-19T14:02:33.457Z,3.78
2022-10-19T14:05:10.638Z,3.78
2022-10-19T14:07:57.098Z,3.90
2022-10-19T14:10:32.773Z,3.97
2022-10-19T14:13:02.230Z,3.70
2022-10-19T14:15:33.583Z,4.00
2022-10-19T14:18:03.815Z,3.55
2022-10-19T14:20:36.735Z,3.72
2022-10-19T14:23:23.391Z,3.80
2022-10-19T14:25:53.460Z,3.95
2022-10-19T14:28:22.903Z,3.60
2022-10-19T14:31:20.761Z,3.55
2022-10-19T14:33:52.172Z,3.92
2022-10-19T14:36:28.178Z,3.92
2022-10-19T14:38:56.455Z,3.97
2022-10-19T14:41:26.967Z,3.15
2022-10-19T14:43:58.615Z,3.90
2022-10-19T14:46:31.792Z,4.22
2022-10-19T14:49:04.646Z,3.65
2022-10-19T14:51:52.809Z,3.80
2022-10-19T14:54:26.606Z,3.95
2022-10-19T14:56:59.538Z,3.78
2022-10-19T14:59:34.734Z,4.65
2022-10-19T15:02:11.593Z,3.95
2022-10-19T15:04:39.475Z,3.95
2022-10-19T15:07:18.259Z,4.32
2022-10-19T15:09:56.488Z,4.15
2022-10-19T15:12:33.838Z,4.38
2022-10-19T15:15:09.855Z,4.13
2022-10-19T15:17:50.553Z,3.95
2022-10-19T15:20:31.350Z,4.10
2022-10-19T15:23:02.066Z,3.95
2022-10-19T15:25:36.822Z,3.60
2022-10-19T15:28:31.937Z,4.10
2022-10-19T15:31:04.889Z,5.90
2022-10-19T15:33:38.894Z,6.53
2022-10-19T15:36:08.671Z,5.05
2022-10-19T15:38:36.353Z,4.53
2022-10-19T15:41:05.085Z,4.30
2022-10-19T15:43:35.179Z,4.40
2022-10-19T15:46:05.471Z,4.30
2022-10-19T15:48:44.443Z,4.50
2022-10-19T15:51:27.200Z,4.38
2022-10-19T15:54:00.345Z,4.20
2022-10-19T15:56:32.252Z,4.00
2022-10-19T15:59:01.832Z,3.83
2022-10-19T16:01:31.767Z,4.00
2022-10-19T16:04:00.050Z,3.75
2022-10-19T16:06:33.382Z,3.95
2022-10-19T16:09:02.149Z,3.92
2022-10-19T16:11:31.719Z,3.88
2022-10-19T16:13:59.482Z,3.67
2022-10-19T16:16:30.460Z,3.80
2022-10-19T16:18:59.117Z,7.18
2022-10-19T16:21:33.873Z,4.68
2022-10-19T16:24:01.890Z,4.20
2022-10-19T16:26:29.480Z,4.80
2022-10-19T16:28:57.527Z,6.78
2022-10-19T16:31:25.255Z,5.30
2022-10-19T16:33:52.998Z,6.80
2022-10-19T16:36:20.515Z,7.28
2022-10-19T16:38:48.571Z,4.25
2022-10-19T16:41:17.264Z,5.47
2022-10-19T16:43:45.055Z,6.65
2022-10-19T16:46:12.686Z,4.28
2022-10-19T16:48:40.264Z,4.57
2022-10-19T16:51:10.304Z,3.90
2022-10-19T16:53:39.928Z,4.25
2022-10-19T16:56:10.317Z,3.58
2022-10-19T16:58:40.999Z,4.25
2022-10-19T17:01:17.182Z,4.72
2022-10-19T17:03:45.792Z,3.90
2022-10-19T17:06:15.576Z,3.92
2022-10-19T17:09:36.624Z,3.70
2022-10-19T17:11:37.612Z,3.63
2022-10-19T17:14:09.061Z,3.60
2022-10-19T17:16:37.814Z,3.80
2022-10-19T17:19:07.048Z,3.78
2022-10-19T17:21:40.165Z,4.20
2022-10-19T17:24:15.667Z,3.40
2022-10-19T17:26:46.862Z,3.95
2022-10-19T17:29:17.187Z,4.45
2022-10-19T17:31:45.313Z,4.60
2022-10-19T17:34:13.270Z,4.28
2022-10-19T17:36:44.711Z,4.35
2022-10-19T17:39:18.884Z,3.95
2022-10-19T17:41:48.167Z,4.10
2022-10-19T17:44:17.162Z,4.18
2022-10-19T17:46:45.071Z,4.40
2022-10-19T17:49:13.373Z,4.18
2022-10-19T17:51:41.111Z,4.03
2022-10-19T17:54:12.505Z,4.80
2022-10-19T17:56:41.164Z,4.20
2022-10-19T17:59:09.297Z,4.72
2022-10-19T18:01:37.402Z,4.13
2022-10-19T18:04:05.885Z,4.30
2022-10-19T18:06:36.836Z,4.47
2022-10-19T18:09:06.936Z,3.85
2022-10-19T18:11:41.955Z,4.30
2022-10-19T18:14:11.694Z,3.88
2022-10-19T18:16:45.633Z,4.13
2022-10-19T18:19:15.120Z,4.15
2022-10-19T18:21:44.401Z,4.18
2022-10-19T18:24:19.137Z,4.28
2022-10-19T18:26:50.838Z,4.47
2022-10-19T18:29:24.210Z,4.72
2022-10-19T18:31:52.706Z,5.10
2022-10-19T18:34:23.613Z,4.13
2022-10-19T18:36:52.639Z,4.28
2022-10-19T18:39:20.748Z,4.35
2022-10-19T18:41:54.561Z,4.20
2022-10-19T18:44:26.538Z,5.95
2022-10-19T18:46:57.099Z,9.48
2022-10-19T18:49:25.616Z,6.03
2022-10-19T18:51:55.432Z,6.50
2022-10-19T18:54:27.847Z,6.32
2022-10-19T18:56:55.733Z,6.30
2022-10-19T18:59:24.060Z,7.35
2022-10-19T19:01:52.187Z,6.00
2022-10-19T19:04:20.188Z,7.10
2022-10-19T19:06:47.958Z,9.70
2022-10-19T19:09:17.437Z,12.50
2022-10-19T19:11:45.288Z,8.15
2022-10-19T19:14:16.085Z,10.15
2022-10-19T19:16:45.059Z,7.60
2022-10-19T19:19:14.139Z,7.53
2022-10-19T19:21:44.430Z,10.55
2022-10-19T19:24:19.255Z,10.77
2022-10-19T19:26:51.102Z,7.93
2022-10-19T19:29:20.161Z,11.15
2022-10-19T19:31:48.320Z,13.02
2022-10-19T19:34:16.861Z,11.05
2022-10-19T19:36:48.187Z,8.98
2022-10-19T19:39:19.401Z,5.85
2022-10-19T19:41:48.926Z,5.40
2022-10-19T19:44:17.516Z,5.75
2022-10-19T19:46:45.480Z,5.80
2022-10-19T19:49:13.973Z,5.53
2022-10-19T19:51:41.927Z,6.50
2022-10-19T19:54:09.721Z,5.78
2022-10-19T19:56:40.034Z,6.97
2022-10-19T19:59:10.545Z,5.80
2022-10-19T20:01:39.493Z,16.48
2022-10-19T20:04:07.377Z,11.57
2022-10-19T20:06:36.652Z,9.20
2022-10-19T20:09:06.222Z,8.73
2022-10-19T20:11:36.177Z,7.70
2022-10-19T20:14:07.630Z,7.78
2022-10-19T20:16:36.611Z,8.30
2022-10-19T20:19:09.613Z,8.40
2022-10-19T20:21:38.340Z,8.63
2022-10-19T20:24:06.627Z,6.68
2022-10-19T20:26:34.895Z,6.15
2022-10-19T20:29:05.108Z,6.22
2022-10-19T20:31:39.172Z,6.15
2022-10-19T20:34:14.817Z,6.35
2022-10-19T20:36:43.227Z,7.18
2022-10-19T20:39:12.171Z,6.28
2022-10-19T20:41:39.854Z,5.95
2022-10-19T20:44:07.438Z,6.30
2022-10-19T20:46:36.938Z,6.63
2022-10-19T20:49:04.996Z,7.25
2022-10-19T20:51:36.780Z,7.32
2022-10-19T20:54:07.500Z,8.10
2022-10-19T20:56:37.065Z,10.10
2022-10-19T20:59:07.408Z,10.40
2022-10-19T21:01:37.757Z,9.25
2022-10-19T21:04:07.096Z,10.82
2022-10-19T21:06:38.241Z,86.00
2022-10-19T21:09:06.346Z,59.88
2022-10-19T21:11:36.372Z,48.58
2022-10-19T21:14:14.010Z,23.95
2022-10-19T21:16:42.063Z,17.88
2022-10-19T21:19:16.624Z,25.48
2022-10-19T21:24:17.007Z,11.27
2022-10-19T21:26:44.764Z,10.32
2022-10-19T21:29:14.148Z,10.55
2022-10-19T21:31:46.434Z,9.48
2022-10-19T21:34:18.893Z,10.32
2022-10-19T21:36:47.074Z,10.63
2022-10-19T21:39:14.761Z,10.38
2022-10-19T21:41:42.225Z,10.13
2022-10-19T21:44:10.069Z,9.73
2022-10-19T21:46:37.606Z,8.85
2022-10-19T21:49:05.057Z,9.20
2022-10-19T21:51:45.025Z,9.82
2022-10-19T21:54:15.433Z,6.15
2022-10-19T21:56:43.469Z,5.40
2022-10-19T21:59:12.174Z,10.05
2022-10-19T22:01:41.582Z,7.35
2022-10-19T22:04:13.252Z,9.45
2022-10-19T22:06:41.614Z,5.65
2022-10-19T22:09:12.438Z,7.80
2022-10-19T22:11:40.072Z,7.78
2022-10-19T22:14:07.548Z,7.25
2022-10-19T22:16:36.869Z,8.15
2022-10-19T22:19:06.055Z,8.27
2022-10-19T22:21:34.958Z,7.63
2022-10-19T22:24:06.607Z,8.02
2022-10-19T22:26:38.003Z,7.55
2022-10-19T22:29:07.396Z,7.07
2022-10-19T22:31:35.992Z,7.63
2022-10-19T22:34:13.797Z,8.27
2022-10-19T22:36:41.408Z,8.20
2022-10-19T22:39:11.221Z,8.55
2022-10-19T22:41:38.696Z,7.28
2022-10-19T22:44:06.191Z,7.50
2022-10-19T22:46:33.768Z,7.47
2022-10-19T22:49:01.422Z,6.88
2022-10-19T22:51:29.042Z,7.15
2022-10-19T22:53:56.500Z,7.00
2022-10-19T22:56:23.957Z,7.90
2022-10-19T22:58:51.451Z,7.70
2022-10-19T23:01:19.527Z,7.50
2022-10-19T23:03:47.063Z,7.75
2022-10-19T23:06:15.532Z,7.53
2022-10-19T23:08:44.343Z,7.50
2022-10-19T23:11:12.513Z,7.50
2022-10-19T23:13:40.229Z,7.90
2022-10-19T23:16:09.354Z,7.82
2022-10-19T23:18:39.243Z,7.57
2022-10-19T23:21:11.843Z,8.10
2022-10-19T23:23:40.156Z,7.97
2022-10-19T23:26:16.590Z,7.90
2022-10-19T23:28:47.005Z,7.95
2022-10-19T23:31:17.014Z,8.15
2022-10-19T23:33:44.985Z,7.25
2022-10-19T23:36:15.954Z,7.72
2022-10-19T23:38:45.549Z,7.60
2022-10-19T23:41:13.900Z,7.25
2022-10-19T23:43:41.865Z,7.30
2022-10-19T23:46:09.689Z,7.85
2022-10-19T23:48:37.463Z,7.53
2022-10-19T23:51:16.722Z,7.40
2022-10-19T23:53:46.087Z,6.78
2022-10-19T23:56:15.271Z,7.82
2022-10-19T23:58:43.666Z,7.55
